createdAt,value
2022-12-25T00:00:21.014Z,9.28
2022-12-25T00:01:17.617Z,9.29
2022-12-25T00:02:18.710Z,9.29
2022-12-25T00:03:17.682Z,9.26
2022-12-25T00:04:17.530Z,9.23
2022-12-25T00:05:18.532Z,9.23
2022-12-25T00:06:18.506Z,9.32
2022-12-25T00:07:17.482Z,9.29
2022-12-25T00:08:17.495Z,9.28
2022-12-25T00:09:17.467Z,9.25
2022-12-25T00:10:17.498Z,9.21
2022-12-25T00:11:17.482Z,9.21
2022-12-25T00:12:17.440Z,9.26
2022-12-25T00:13:17.461Z,9.26
2022-12-25T00:14:17.450Z,9.19
2022-12-25T00:15:17.393Z,9.25
2022-12-25T00:16:17.469Z,9.22
2022-12-25T00:17:17.387Z,9.21
2022-12-25T00:18:17.389Z,9.25
2022-12-25T00:19:17.404Z,9.18
2022-12-25T00:20:17.390Z,9.22
2022-12-25T00:21:17.341Z,9.16
2022-12-25T00:22:17.353Z,9.19
2022-12-25T00:23:17.359Z,9.16
2022-12-25T00:24:17.304Z,9.18
2022-12-25T00:25:17.330Z,9.04
2022-12-25T00:26:17.294Z,9.11
2022-12-25T00:27:17.301Z,9.21
2022-12-25T00:28:18.277Z,9.21
2022-12-25T00:29:17.274Z,9.13
2022-12-25T00:30:17.250Z,9.28
2022-12-25T00:31:17.342Z,9.32
2022-12-25T00:32:17.240Z,9.32
2022-12-25T00:33:17.206Z,9.36
2022-12-25T00:34:17.184Z,9.25
2022-12-25T00:35:17.216Z,9.18
2022-12-25T00:36:17.206Z,9.25
2022-12-25T00:37:17.185Z,9.19
2022-12-25T00:38:17.156Z,9.18
2022-12-25T00:39:17.150Z,9.21
2022-12-25T00:40:17.166Z,9.13
2022-12-25T00:41:17.124Z,9.04
2022-12-25T00:42:17.147Z,8.95
2022-12-25T00:43:17.133Z,8.87
2022-12-25T00:44:17.078Z,8.79
2022-12-25T00:45:17.089Z,8.82
2022-12-25T00:46:18.196Z,8.78
2022-12-25T00:47:17.126Z,8.85
2022-12-25T00:48:17.083Z,8.91
2022-12-25T00:49:17.062Z,8.87
2022-12-25T00:50:17.025Z,8.94
2022-12-25T00:51:17.069Z,8.92
2022-12-25T00:52:17.004Z,8.91
2022-12-25T00:53:17.044Z,9.03
2022-12-25T00:54:16.967Z,9.06
2022-12-25T00:55:16.986Z,9.10
2022-12-25T00:56:16.949Z,8.95
2022-12-25T00:57:16.967Z,9.00
2022-12-25T00:58:16.923Z,9.00
2022-12-25T00:59:17.101Z,9.10
2022-12-25T01:00:16.907Z,9.06
2022-12-25T01:01:17.187Z,9.11
2022-12-25T01:02:17.092Z,9.13
2022-12-25T01:03:18.001Z,9.14
2022-12-25T01:04:16.908Z,9.06
2022-12-25T01:05:16.890Z,9.14
2022-12-25T01:06:16.881Z,9.11
2022-12-25T01:07:16.970Z,9.08
2022-12-25T01:08:16.829Z,9.02
2022-12-25T01:09:17.877Z,9.14
2022-12-25T01:10:16.819Z,9.08
2022-12-25T01:11:16.813Z,9.06
2022-12-25T01:12:16.831Z,8.92
2022-12-25T01:13:16.771Z,9.06
2022-12-25T01:14:16.859Z,9.11
2022-12-25T01:15:16.750Z,9.03
2022-12-25T01:16:16.762Z,9.13
2022-12-25T01:17:17.781Z,8.94
2022-12-25T01:18:17.740Z,8.99
2022-12-25T01:19:16.723Z,8.87
2022-12-25T01:20:17.707Z,8.82
2022-12-25T01:21:16.691Z,8.84
2022-12-25T01:22:17.735Z,8.91
2022-12-25T01:23:16.717Z,8.91
2022-12-25T01:24:16.659Z,8.89
2022-12-25T01:25:16.647Z,8.95
2022-12-25T01:26:16.659Z,8.92
2022-12-25T01:27:17.650Z,8.91
2022-12-25T01:28:16.646Z,8.84
2022-12-25T01:29:17.609Z,8.84
2022-12-25T01:30:16.587Z,8.84
2022-12-25T01:31:16.644Z,8.76
2022-12-25T01:32:16.599Z,8.66
2022-12-25T01:33:16.566Z,8.84
2022-12-25T01:34:16.557Z,8.79
2022-12-25T01:35:16.561Z,8.84
2022-12-25T01:36:16.530Z,8.88
2022-12-25T01:37:16.538Z,8.71
2022-12-25T01:38:16.538Z,8.73
2022-12-25T01:39:16.506Z,8.76
2022-12-25T01:40:16.507Z,8.71
2022-12-25T01:41:16.520Z,8.70
2022-12-25T01:42:16.475Z,8.63
2022-12-25T01:43:18.717Z,8.52
2022-12-25T01:44:16.479Z,8.45
2022-12-25T01:45:16.437Z,8.41
2022-12-25T01:46:17.540Z,8.28
2022-12-25T01:47:16.446Z,8.28
2022-12-25T01:48:16.384Z,8.19
2022-12-25T01:49:16.371Z,8.19
2022-12-25T01:50:16.418Z,8.18
2022-12-25T01:51:17.387Z,8.16
2022-12-25T01:52:21.784Z,8.12
2022-12-25T01:53:17.346Z,8.00
2022-12-25T01:54:16.333Z,8.05
2022-12-25T01:55:17.333Z,8.01
2022-12-25T01:56:16.353Z,7.97
2022-12-25T01:57:16.301Z,8.08
2022-12-25T01:58:16.294Z,8.08
2022-12-25T01:59:17.299Z,8.10
2022-12-25T02:00:16.284Z,8.03
2022-12-25T02:01:17.499Z,7.95
2022-12-25T02:02:17.351Z,8.03
2022-12-25T02:03:16.293Z,8.12
2022-12-25T02:04:16.251Z,8.15
2022-12-25T02:05:16.259Z,8.13
2022-12-25T02:06:16.269Z,8.05
2022-12-25T02:07:16.191Z,8.06
2022-12-25T02:08:16.184Z,8.05
2022-12-25T02:09:16.285Z,7.98
2022-12-25T02:10:16.182Z,8.05
2022-12-25T02:11:16.160Z,7.97
2022-12-25T02:12:16.144Z,8.08
2022-12-25T02:13:16.124Z,8.06
2022-12-25T02:14:16.167Z,8.06
2022-12-25T02:15:16.131Z,8.06
2022-12-25T02:16:16.195Z,8.10
2022-12-25T02:17:16.148Z,8.13
2022-12-25T02:18:16.082Z,8.06
2022-12-25T02:19:17.076Z,8.12
2022-12-25T02:20:16.035Z,8.03
2022-12-25T02:21:16.051Z,8.09
2022-12-25T02:22:16.033Z,8.12
2022-12-25T02:23:17.064Z,8.10
2022-12-25T02:24:15.998Z,8.08
2022-12-25T02:25:16.006Z,7.98
2022-12-25T02:26:17.045Z,7.97
2022-12-25T02:27:16.039Z,7.88
2022-12-25T02:28:15.990Z,7.85
2022-12-25T02:29:15.969Z,7.87
2022-12-25T02:30:15.969Z,7.91
2022-12-25T02:31:16.930Z,7.94
2022-12-25T02:32:15.996Z,7.93
2022-12-25T02:33:15.919Z,8.00
2022-12-25T02:34:15.883Z,8.10
2022-12-25T02:35:15.900Z,8.09
2022-12-25T02:36:16.897Z,8.06
2022-12-25T02:37:15.886Z,8.06
2022-12-25T02:38:15.911Z,8.10
2022-12-25T02:39:16.835Z,8.12
2022-12-25T02:40:16.843Z,8.10
2022-12-25T02:41:15.827Z,8.16
2022-12-25T02:42:15.797Z,8.18
2022-12-25T02:43:15.841Z,8.15
2022-12-25T02:44:15.849Z,8.10
2022-12-25T02:45:15.821Z,8.20
2022-12-25T02:46:15.850Z,8.18
2022-12-25T02:47:15.750Z,8.13
2022-12-25T02:48:15.757Z,8.15
2022-12-25T02:49:15.755Z,8.13
2022-12-25T02:50:15.729Z,8.15
2022-12-25T02:51:16.563Z,8.10
2022-12-25T02:52:15.707Z,8.10
2022-12-25T02:53:15.673Z,8.10
2022-12-25T02:54:15.676Z,8.06
2022-12-25T02:55:15.666Z,7.98
2022-12-25T02:56:16.694Z,8.00
2022-12-25T02:57:16.632Z,7.98
2022-12-25T02:58:15.660Z,7.91
2022-12-25T02:59:15.704Z,7.85
2022-12-25T03:00:15.682Z,7.73
2022-12-25T03:01:15.768Z,7.72
2022-12-25T03:02:15.652Z,7.77
2022-12-25T03:03:15.642Z,7.66
2022-12-25T03:04:15.620Z,7.69
2022-12-25T03:05:16.560Z,7.54
2022-12-25T03:06:15.566Z,7.61
2022-12-25T03:07:15.543Z,7.61
2022-12-25T03:08:15.535Z,7.60
2022-12-25T03:09:16.528Z,7.57
2022-12-25T03:10:15.499Z,7.60
2022-12-25T03:11:15.567Z,7.57
2022-12-25T03:12:16.526Z,7.54
2022-12-25T03:13:15.524Z,7.54
2022-12-25T03:14:15.519Z,7.54
2022-12-25T03:15:15.486Z,7.66
2022-12-25T03:16:15.513Z,7.60
2022-12-25T03:17:15.405Z,7.67
2022-12-25T03:18:15.461Z,7.75
2022-12-25T03:19:15.460Z,7.72
2022-12-25T03:20:15.404Z,7.91
2022-12-25T03:21:15.406Z,7.87
2022-12-25T03:22:15.347Z,8.01
2022-12-25T03:23:15.439Z,8.05
2022-12-25T03:24:15.374Z,8.09
2022-12-25T03:25:15.352Z,8.12
2022-12-25T03:26:16.367Z,8.15
2022-12-25T03:27:15.311Z,8.19
2022-12-25T03:28:16.291Z,8.05
2022-12-25T03:29:15.354Z,8.06
2022-12-25T03:30:15.347Z,7.95
2022-12-25T03:31:16.381Z,7.87
2022-12-25T03:32:16.264Z,7.83
2022-12-25T03:33:43.187Z,7.97
2022-12-25T03:34:16.662Z,7.90
2022-12-25T03:35:15.239Z,7.91
2022-12-25T03:36:15.213Z,7.90
2022-12-25T03:37:16.243Z,7.93
2022-12-25T03:38:16.282Z,7.95
2022-12-25T03:39:15.222Z,7.94
2022-12-25T03:40:15.214Z,7.90
2022-12-25T03:41:15.171Z,7.90
2022-12-25T03:42:16.206Z,7.95
2022-12-25T03:43:15.157Z,8.00
2022-12-25T03:44:15.189Z,7.98
2022-12-25T03:45:15.165Z,8.08
2022-12-25T03:46:15.161Z,7.95
2022-12-25T03:47:15.126Z,7.98
2022-12-25T03:48:15.092Z,8.03
2022-12-25T03:49:15.109Z,8.13
2022-12-25T03:50:15.122Z,8.16
2022-12-25T03:51:15.104Z,8.13
2022-12-25T03:52:16.050Z,8.13
2022-12-25T03:53:16.049Z,8.19
2022-12-25T03:54:16.034Z,8.16
2022-12-25T03:55:15.025Z,8.18
2022-12-25T03:56:15.026Z,8.19
2022-12-25T03:57:14.973Z,8.13
2022-12-25T03:58:23.584Z,8.31
2022-12-25T03:59:21.124Z,8.20
2022-12-25T04:00:15.971Z,8.16
2022-12-25T04:01:15.122Z,8.16
2022-12-25T04:02:15.083Z,8.19
2022-12-25T04:03:16.063Z,8.19
2022-12-25T04:04:14.906Z,8.28
2022-12-25T04:05:15.517Z,8.27
2022-12-25T04:06:14.924Z,8.27
2022-12-25T04:07:14.871Z,8.26
2022-12-25T04:08:14.876Z,8.30
2022-12-25T04:09:14.885Z,8.27
2022-12-25T04:10:14.814Z,8.30
2022-12-25T04:11:14.856Z,8.30
2022-12-25T04:12:15.793Z,8.42
2022-12-25T04:13:14.820Z,8.44
2022-12-25T04:14:15.805Z,8.45
2022-12-25T04:15:14.781Z,8.41
2022-12-25T04:16:14.911Z,8.44
2022-12-25T04:17:14.772Z,8.33
2022-12-25T04:18:14.767Z,8.34
2022-12-25T04:19:15.734Z,8.27
2022-12-25T04:20:14.735Z,8.30
2022-12-25T04:21:14.743Z,8.28
2022-12-25T04:22:14.734Z,8.31
2022-12-25T04:23:14.698Z,8.28
2022-12-25T04:24:15.715Z,8.42
2022-12-25T04:25:14.653Z,8.41
2022-12-25T04:26:15.545Z,8.48
2022-12-25T04:27:15.669Z,8.46
2022-12-25T04:28:14.635Z,8.37
2022-12-25T04:29:15.602Z,8.42
2022-12-25T04:30:14.657Z,8.24
2022-12-25T04:31:14.662Z,8.18
2022-12-25T04:32:15.583Z,8.15
2022-12-25T04:33:15.583Z,8.12
2022-12-25T04:34:14.573Z,8.08
2022-12-25T04:35:14.589Z,8.01
2022-12-25T04:36:14.610Z,8.13
2022-12-25T04:37:14.526Z,8.18
2022-12-25T04:38:14.516Z,8.08
2022-12-25T04:39:14.539Z,8.09
2022-12-25T04:40:15.516Z,8.09
2022-12-25T04:41:14.500Z,7.97
2022-12-25T04:42:14.520Z,8.08
2022-12-25T04:43:14.465Z,8.01
2022-12-25T04:44:14.455Z,7.94
2022-12-25T04:45:14.440Z,7.90
2022-12-25T04:46:15.434Z,7.91
2022-12-25T04:47:14.457Z,7.94
2022-12-25T04:48:14.451Z,7.98
2022-12-25T04:49:14.418Z,8.12
2022-12-25T04:50:14.400Z,8.09
2022-12-25T04:51:14.385Z,8.18
2022-12-25T04:52:14.387Z,8.18
2022-12-25T04:53:14.343Z,8.19
2022-12-25T04:54:15.354Z,8.20
2022-12-25T04:55:15.318Z,8.28
2022-12-25T04:56:14.335Z,8.33
2022-12-25T04:57:14.323Z,8.38
2022-12-25T04:58:14.316Z,8.36
2022-12-25T04:59:14.285Z,8.46
2022-12-25T05:00:14.297Z,8.41
2022-12-25T05:01:14.324Z,8.49
2022-12-25T05:02:14.457Z,8.61
2022-12-25T05:03:14.375Z,8.64
2022-12-25T05:04:14.266Z,8.58
2022-12-25T05:05:14.214Z,8.58
2022-12-25T05:06:14.229Z,8.67
2022-12-25T05:07:14.226Z,8.58
2022-12-25T05:08:14.197Z,8.66
2022-12-25T05:09:14.182Z,8.53
2022-12-25T05:10:14.208Z,8.56
2022-12-25T05:11:14.159Z,8.52
2022-12-25T05:12:14.248Z,8.61
2022-12-25T05:13:14.126Z,8.66
2022-12-25T05:14:14.124Z,8.64
2022-12-25T05:15:14.118Z,8.64
2022-12-25T05:16:14.245Z,8.64
2022-12-25T05:17:14.089Z,8.71
2022-12-25T05:18:15.073Z,8.66
2022-12-25T05:19:14.075Z,8.64
2022-12-25T05:20:14.060Z,8.64
2022-12-25T05:21:14.060Z,8.58
2022-12-25T05:22:15.043Z,8.52
2022-12-25T05:23:14.024Z,8.53
2022-12-25T05:24:13.996Z,8.55
2022-12-25T05:25:14.025Z,8.45
2022-12-25T05:26:14.020Z,8.46
2022-12-25T05:27:13.975Z,8.45
2022-12-25T05:28:14.954Z,8.49
2022-12-25T05:29:14.951Z,8.44
2022-12-25T05:30:13.950Z,8.48
2022-12-25T05:31:14.008Z,8.41
2022-12-25T05:32:14.963Z,8.38
2022-12-25T05:33:14.941Z,8.41
2022-12-25T05:34:13.883Z,8.36
2022-12-25T05:35:14.884Z,8.41
2022-12-25T05:36:14.860Z,8.36
2022-12-25T05:37:13.881Z,8.42
2022-12-25T05:38:13.869Z,8.44
2022-12-25T05:39:13.889Z,8.38
2022-12-25T05:40:13.828Z,8.41
2022-12-25T05:41:13.808Z,8.44
2022-12-25T05:42:14.813Z,8.37
2022-12-25T05:43:13.818Z,8.44
2022-12-25T05:44:14.844Z,8.27
2022-12-25T05:45:14.763Z,8.36
2022-12-25T05:46:13.926Z,8.33
2022-12-25T05:47:13.749Z,8.31
2022-12-25T05:48:14.750Z,8.24
2022-12-25T05:49:13.721Z,8.31
2022-12-25T05:50:13.776Z,8.28
2022-12-25T05:51:13.700Z,8.31
2022-12-25T05:52:13.743Z,8.24
2022-12-25T05:53:14.705Z,8.30
2022-12-25T05:54:13.699Z,8.33
2022-12-25T05:55:13.739Z,8.36
2022-12-25T05:56:13.703Z,8.46
2022-12-25T05:57:14.627Z,8.52
2022-12-25T05:58:14.639Z,8.56
2022-12-25T05:59:14.631Z,8.64
2022-12-25T06:00:14.640Z,8.73
2022-12-25T06:01:13.626Z,8.79
2022-12-25T06:02:14.642Z,8.70
2022-12-25T06:03:13.737Z,8.85
2022-12-25T06:04:14.644Z,8.89
2022-12-25T06:05:13.623Z,8.85
2022-12-25T06:06:14.569Z,8.87
2022-12-25T06:07:13.531Z,8.88
2022-12-25T06:08:13.541Z,9.02
2022-12-25T06:09:14.565Z,9.00
2022-12-25T06:10:13.538Z,8.92
2022-12-25T06:11:14.503Z,9.03
2022-12-25T06:12:13.463Z,9.00
2022-12-25T06:13:13.569Z,9.13
2022-12-25T06:14:13.490Z,9.11
2022-12-25T06:15:13.473Z,9.16
2022-12-25T06:16:13.507Z,9.11
2022-12-25T06:17:13.446Z,9.00
2022-12-25T06:18:13.488Z,9.08
2022-12-25T06:19:13.403Z,9.03
2022-12-25T06:20:13.411Z,9.06
2022-12-25T06:21:14.405Z,9.13
2022-12-25T06:22:13.371Z,9.13
2022-12-25T06:23:13.482Z,9.18
2022-12-25T06:24:20.837Z,9.14
2022-12-25T06:25:14.379Z,9.06
2022-12-25T06:26:13.377Z,9.03
2022-12-25T06:27:13.368Z,9.04
2022-12-25T06:28:13.305Z,9.13
2022-12-25T06:29:14.293Z,9.00
2022-12-25T06:30:13.327Z,8.99
2022-12-25T06:31:13.374Z,9.10
2022-12-25T06:32:13.282Z,9.10
2022-12-25T06:33:13.280Z,9.16
2022-12-25T06:34:13.240Z,9.10
2022-12-25T06:35:13.327Z,9.13
2022-12-25T06:36:13.277Z,9.13
2022-12-25T06:37:13.224Z,9.14
2022-12-25T06:38:13.228Z,9.08
2022-12-25T06:39:13.188Z,9.13
2022-12-25T06:40:13.264Z,9.10
2022-12-25T06:41:13.266Z,9.13
2022-12-25T06:42:13.153Z,9.13
2022-12-25T06:43:13.167Z,9.11
2022-12-25T06:45:22.507Z,9.04
2022-12-25T06:46:23.624Z,8.95
2022-12-25T06:47:22.494Z,8.87
2022-12-25T06:48:23.499Z,8.88
2022-12-25T06:49:22.450Z,8.81
2022-12-25T06:50:22.421Z,8.78
2022-12-25T06:51:22.457Z,8.76
2022-12-25T06:52:22.437Z,8.81
2022-12-25T06:53:22.468Z,8.76
2022-12-25T06:54:22.389Z,8.73
2022-12-25T06:55:22.393Z,8.84
2022-12-25T06:56:22.361Z,8.85
2022-12-25T06:57:22.366Z,8.79
2022-12-25T06:58:22.374Z,8.84
2022-12-25T06:59:22.350Z,8.97
2022-12-25T07:00:22.301Z,8.92
2022-12-25T07:01:22.513Z,9.00
2022-12-25T07:02:22.385Z,9.00
2022-12-25T07:03:22.377Z,9.08
2022-12-25T07:04:22.272Z,8.99
2022-12-25T07:05:22.301Z,9.18
2022-12-25T07:06:22.255Z,9.13
2022-12-25T07:07:23.239Z,9.21
2022-12-25T07:08:23.251Z,9.25
2022-12-25T07:09:22.223Z,9.23
2022-12-25T07:10:23.211Z,9.22
2022-12-25T07:11:22.211Z,9.22
2022-12-25T07:12:22.247Z,9.23
2022-12-25T07:13:22.176Z,9.22
2022-12-25T07:14:24.463Z,9.23
2022-12-25T07:15:22.140Z,9.22
2022-12-25T07:16:22.207Z,9.18
2022-12-25T07:17:23.173Z,9.25
2022-12-25T07:18:22.138Z,9.22
2022-12-25T07:19:22.103Z,9.23
2022-12-25T07:20:22.113Z,9.22
2022-12-25T07:21:22.099Z,9.25
2022-12-25T07:22:22.067Z,9.36
2022-12-25T07:23:22.052Z,9.26
2022-12-25T07:24:22.083Z,9.28
2022-12-25T07:25:23.043Z,9.39
2022-12-25T07:26:22.022Z,9.37
2022-12-25T07:27:22.039Z,9.40
2022-12-25T07:28:21.997Z,9.41
2022-12-25T07:29:22.031Z,9.41
2022-12-25T07:30:22.006Z,9.39
2022-12-25T07:31:22.043Z,9.43
2022-12-25T07:32:21.970Z,9.34
2022-12-25T07:33:21.957Z,9.31
2022-12-25T07:34:21.955Z,9.34
2022-12-25T07:35:22.918Z,9.41
2022-12-25T07:36:21.930Z,9.36
2022-12-25T07:37:21.920Z,9.43
2022-12-25T07:38:21.918Z,9.40
2022-12-25T07:39:21.910Z,9.44
2022-12-25T07:40:21.866Z,9.46
2022-12-25T07:41:21.870Z,9.44
2022-12-25T07:42:25.290Z,9.48
2022-12-25T07:43:21.843Z,9.47
2022-12-25T07:44:22.811Z,9.48
2022-12-25T07:45:21.826Z,9.41
2022-12-25T07:46:21.903Z,9.56
2022-12-25T07:47:21.792Z,9.54
2022-12-25T07:48:21.801Z,9.51
2022-12-25T07:49:21.787Z,9.59
2022-12-25T07:50:21.773Z,9.55
2022-12-25T07:51:21.737Z,9.64
2022-12-25T07:52:22.760Z,9.59
2022-12-25T07:53:21.748Z,9.54
2022-12-25T07:54:22.738Z,9.59
2022-12-25T07:55:22.689Z,9.64
2022-12-25T07:56:21.711Z,9.72
2022-12-25T07:57:21.684Z,9.72
2022-12-25T07:58:23.565Z,9.64
2022-12-25T07:59:22.673Z,9.80
2022-12-25T08:00:21.666Z,9.82
2022-12-25T08:01:21.907Z,9.87
2022-12-25T08:02:21.973Z,9.83
2022-12-25T08:03:21.912Z,9.95
2022-12-25T08:04:21.732Z,9.89
2022-12-25T08:05:21.607Z,9.92
2022-12-25T08:06:21.583Z,10.02
2022-12-25T08:07:21.581Z,9.99
2022-12-25T08:08:21.557Z,10.04
2022-12-25T08:09:21.557Z,10.07
2022-12-25T08:10:21.532Z,10.04
2022-12-25T08:11:21.571Z,9.98
2022-12-25T08:12:22.544Z,10.10
2022-12-25T08:13:21.512Z,10.10
2022-12-25T08:14:21.495Z,10.10
2022-12-25T08:15:21.477Z,10.22
2022-12-25T08:16:21.565Z,10.16
2022-12-25T08:17:21.457Z,10.10
2022-12-25T08:18:27.702Z,10.15
2022-12-25T08:19:22.441Z,10.22
2022-12-25T08:20:21.425Z,10.22
2022-12-25T08:21:22.416Z,10.28
2022-12-25T08:22:21.436Z,10.22
2022-12-25T08:23:21.397Z,10.28
2022-12-25T08:24:21.391Z,10.25
2022-12-25T08:25:21.401Z,10.34
2022-12-25T08:26:21.391Z,10.38
2022-12-25T08:27:21.385Z,10.40
2022-12-25T08:28:21.380Z,10.44
2022-12-25T08:29:21.342Z,10.51
2022-12-25T08:30:21.344Z,10.53
2022-12-25T08:31:21.413Z,10.51
2022-12-25T08:32:21.305Z,10.56
2022-12-25T08:33:21.293Z,10.49
2022-12-25T08:34:22.297Z,10.56
2022-12-25T08:35:21.276Z,10.61
2022-12-25T08:36:21.259Z,10.69
2022-12-25T08:37:21.236Z,10.59
2022-12-25T08:38:21.225Z,10.72
2022-12-25T08:39:21.222Z,10.72
2022-12-25T08:40:21.214Z,10.74
2022-12-25T08:41:22.180Z,10.74
2022-12-25T08:42:21.167Z,10.86
2022-12-25T08:43:21.175Z,10.89
2022-12-25T08:44:21.165Z,10.94
2022-12-25T08:45:21.163Z,10.90
2022-12-25T08:46:21.208Z,10.86
2022-12-25T08:47:21.135Z,10.87
2022-12-25T08:48:21.132Z,10.97
2022-12-25T08:49:22.117Z,10.90
2022-12-25T08:50:21.114Z,10.97
2022-12-25T08:51:21.082Z,11.02
2022-12-25T08:52:21.075Z,11.07
2022-12-25T08:53:21.076Z,11.02
2022-12-25T08:54:22.030Z,11.04
2022-12-25T08:55:22.072Z,11.15
2022-12-25T08:56:21.024Z,11.19
2022-12-25T08:57:21.137Z,11.30
2022-12-25T08:58:22.028Z,11.32
2022-12-25T08:59:21.010Z,11.30
2022-12-25T09:00:20.971Z,11.32
2022-12-25T09:01:21.116Z,11.35
2022-12-25T09:02:21.147Z,11.43
2022-12-25T09:03:21.044Z,11.50
2022-12-25T09:04:20.948Z,11.41
2022-12-25T09:05:20.944Z,11.55
2022-12-25T09:06:20.938Z,11.47
2022-12-25T09:07:20.901Z,11.57
2022-12-25T09:08:20.900Z,11.63
2022-12-25T09:09:20.925Z,11.52
2022-12-25T09:10:20.875Z,11.51
2022-12-25T09:11:20.903Z,11.57
2022-12-25T09:12:20.885Z,11.69
2022-12-25T09:13:20.894Z,11.69
2022-12-25T09:14:20.847Z,11.65
2022-12-25T09:15:20.812Z,11.66
2022-12-25T09:16:20.916Z,11.69
2022-12-25T09:17:20.808Z,11.66
2022-12-25T09:18:20.787Z,11.73
2022-12-25T09:19:20.805Z,11.66
2022-12-25T09:20:21.556Z,11.73
2022-12-25T09:21:20.761Z,11.86
2022-12-25T09:22:20.781Z,11.87
2022-12-25T09:23:20.758Z,11.88
2022-12-25T09:24:20.718Z,11.87
2022-12-25T09:25:20.709Z,11.95
2022-12-25T09:26:20.760Z,11.84
2022-12-25T09:27:20.707Z,11.84
2022-12-25T09:28:21.710Z,11.84
2022-12-25T09:29:20.666Z,11.90
2022-12-25T09:30:20.667Z,11.95
2022-12-25T09:31:20.786Z,11.95
2022-12-25T09:32:20.630Z,11.99
2022-12-25T09:33:20.623Z,12.04
2022-12-25T09:34:20.635Z,12.15
2022-12-25T09:35:20.621Z,12.13
2022-12-25T09:36:20.585Z,12.10
2022-12-25T09:37:20.580Z,12.12
2022-12-25T09:38:21.593Z,12.17
2022-12-25T09:39:20.557Z,12.18
2022-12-25T09:40:20.574Z,12.27
2022-12-25T09:41:20.556Z,12.13
2022-12-25T09:42:21.524Z,12.25
2022-12-25T09:43:20.535Z,12.17
2022-12-25T09:44:21.517Z,12.20
2022-12-25T09:45:21.509Z,12.12
2022-12-25T09:46:20.538Z,12.10
2022-12-25T09:47:20.497Z,12.12
2022-12-25T09:48:20.463Z,12.29
2022-12-25T09:49:20.460Z,12.27
2022-12-25T09:50:20.517Z,12.37
2022-12-25T09:51:20.413Z,12.39
2022-12-25T09:52:20.447Z,12.35
2022-12-25T09:53:21.389Z,12.36
2022-12-25T09:54:21.396Z,12.32
2022-12-25T09:55:21.191Z,12.37
2022-12-25T09:56:20.391Z,12.39
2022-12-25T09:57:20.368Z,12.42
2022-12-25T09:58:21.365Z,12.50
2022-12-25T09:59:21.352Z,12.46
2022-12-25T10:00:20.472Z,12.43
2022-12-25T10:01:20.498Z,12.46
2022-12-25T10:02:20.473Z,12.47
2022-12-25T10:03:20.335Z,12.55
2022-12-25T10:04:20.303Z,12.53
2022-12-25T10:05:20.260Z,12.70
2022-12-25T10:06:20.259Z,12.72
2022-12-25T10:07:21.249Z,12.70
2022-12-25T10:08:20.264Z,12.73
2022-12-25T10:09:20.227Z,12.72
2022-12-25T10:10:20.240Z,12.61
2022-12-25T10:11:20.212Z,12.70
2022-12-25T10:12:20.195Z,12.73
2022-12-25T10:13:20.195Z,12.75
2022-12-25T10:14:20.187Z,12.78
2022-12-25T10:15:20.183Z,12.58
2022-12-25T10:16:21.231Z,12.64
2022-12-25T10:17:20.128Z,12.75
2022-12-25T10:18:20.144Z,12.79
2022-12-25T10:19:20.112Z,12.82
2022-12-25T10:20:20.114Z,12.75
2022-12-25T10:21:20.120Z,12.85
2022-12-25T10:22:20.109Z,12.83
2022-12-25T10:23:20.074Z,12.76
2022-12-25T10:24:21.092Z,12.79
2022-12-25T10:25:21.064Z,12.80
2022-12-25T10:26:20.136Z,12.82
2022-12-25T10:27:20.033Z,12.82
2022-12-25T10:28:20.056Z,12.82
2022-12-25T10:29:20.001Z,12.85
2022-12-25T10:30:20.028Z,12.95
2022-12-25T10:31:20.140Z,12.79
2022-12-25T10:32:19.989Z,12.85
2022-12-25T10:33:19.982Z,12.87
2022-12-25T10:34:19.966Z,12.85
2022-12-25T10:35:19.935Z,12.93
2022-12-25T10:36:19.933Z,12.85
2022-12-25T10:37:19.946Z,12.90
2022-12-25T10:38:19.921Z,12.97
2022-12-25T10:39:19.919Z,12.93
2022-12-25T10:40:19.890Z,13.01
2022-12-25T10:41:19.911Z,13.08
2022-12-25T10:42:19.928Z,13.13
2022-12-25T10:43:19.862Z,12.91
2022-12-25T10:44:19.879Z,12.97
2022-12-25T10:45:20.833Z,13.01
2022-12-25T10:46:20.907Z,13.04
2022-12-25T10:47:19.810Z,13.16
2022-12-25T10:48:20.803Z,13.05
2022-12-25T10:49:19.821Z,13.04
2022-12-25T10:50:20.855Z,13.12
2022-12-25T10:51:19.766Z,13.11
2022-12-25T10:52:19.782Z,13.13
2022-12-25T10:53:19.745Z,13.04
2022-12-25T10:54:19.716Z,13.18
2022-12-25T10:55:24.986Z,13.16
2022-12-25T10:56:20.713Z,13.13
2022-12-25T10:57:20.716Z,13.05
2022-12-25T10:58:19.693Z,13.12
2022-12-25T10:59:19.671Z,13.05
2022-12-25T11:00:19.674Z,13.16
2022-12-25T11:01:19.777Z,13.12
2022-12-25T11:02:19.910Z,13.20
2022-12-25T11:03:19.842Z,13.15
2022-12-25T11:04:20.608Z,13.16
2022-12-25T11:05:19.605Z,13.18
2022-12-25T11:06:19.597Z,13.23
2022-12-25T11:07:20.604Z,13.25
2022-12-25T11:08:20.596Z,13.12
2022-12-25T11:09:19.562Z,13.16
2022-12-25T11:10:19.547Z,13.30
2022-12-25T11:11:19.547Z,13.28
2022-12-25T11:12:19.593Z,13.22
2022-12-25T11:13:20.539Z,13.27
2022-12-25T11:14:19.529Z,13.23
2022-12-25T11:15:19.485Z,13.31
2022-12-25T11:16:19.572Z,13.35
2022-12-25T11:17:19.463Z,13.30
2022-12-25T11:18:19.479Z,13.25
2022-12-25T11:19:19.495Z,13.31
2022-12-25T11:20:19.459Z,13.35
2022-12-25T11:21:19.414Z,13.25
2022-12-25T11:22:19.420Z,13.35
2022-12-25T11:23:19.418Z,13.37
2022-12-25T11:24:19.410Z,13.39
2022-12-25T11:25:19.398Z,13.37
2022-12-25T11:26:19.383Z,13.33
2022-12-25T11:27:19.362Z,13.31
2022-12-25T11:28:19.364Z,13.33
2022-12-25T11:29:20.350Z,13.35
2022-12-25T11:30:19.439Z,13.35
2022-12-25T11:31:19.450Z,13.42
2022-12-25T11:32:19.340Z,13.37
2022-12-25T11:33:19.304Z,13.41
2022-12-25T11:34:19.305Z,13.38
2022-12-25T11:35:19.309Z,13.49
2022-12-25T11:36:20.304Z,13.39
2022-12-25T11:37:19.239Z,13.47
2022-12-25T11:38:19.228Z,13.46
2022-12-25T11:39:19.230Z,13.47
2022-12-25T11:40:19.225Z,13.42
2022-12-25T11:41:19.217Z,13.37
2022-12-25T11:42:19.217Z,13.47
2022-12-25T11:43:19.180Z,13.46
2022-12-25T11:44:19.173Z,13.52
2022-12-25T11:45:19.185Z,13.46
2022-12-25T11:46:19.188Z,13.52
2022-12-25T11:47:19.148Z,13.50
2022-12-25T11:48:20.135Z,13.52
2022-12-25T11:49:19.137Z,13.50
2022-12-25T11:50:20.138Z,13.38
2022-12-25T11:51:19.088Z,13.46
2022-12-25T11:52:20.112Z,13.47
2022-12-25T11:53:19.104Z,13.52
2022-12-25T11:54:20.087Z,13.47
2022-12-25T11:55:19.040Z,13.49
2022-12-25T11:56:19.027Z,13.47
2022-12-25T11:57:19.056Z,13.42
2022-12-25T11:58:20.030Z,13.44
2022-12-25T11:59:19.026Z,13.37
2022-12-25T12:00:19.040Z,13.39
2022-12-25T12:01:19.025Z,13.37
2022-12-25T12:02:19.152Z,13.39
2022-12-25T12:03:19.078Z,13.44
2022-12-25T12:04:21.033Z,13.49
2022-12-25T12:05:19.925Z,13.52
2022-12-25T12:06:18.924Z,13.56
2022-12-25T12:07:18.933Z,13.50
2022-12-25T12:08:18.925Z,13.54
2022-12-25T12:09:18.894Z,13.62
2022-12-25T12:10:18.905Z,13.42
2022-12-25T12:11:19.875Z,13.57
2022-12-25T12:12:18.909Z,13.62
2022-12-25T12:13:18.854Z,13.57
2022-12-25T12:14:18.840Z,13.60
2022-12-25T12:15:19.936Z,13.60
2022-12-25T12:16:18.908Z,13.57
2022-12-25T12:17:18.823Z,13.70
2022-12-25T12:18:18.847Z,13.70
2022-12-25T12:19:18.788Z,13.67
2022-12-25T12:20:18.782Z,13.77
2022-12-25T12:21:18.761Z,13.83
2022-12-25T12:22:19.742Z,13.78
2022-12-25T12:23:19.785Z,13.89
2022-12-25T12:24:18.751Z,13.89
2022-12-25T12:25:18.727Z,13.85
2022-12-25T12:26:18.720Z,13.92
2022-12-25T12:27:18.684Z,13.87
2022-12-25T12:28:18.698Z,13.87
2022-12-25T12:29:19.672Z,13.86
2022-12-25T12:30:19.673Z,13.81
2022-12-25T12:31:18.714Z,13.93
2022-12-25T12:32:18.643Z,13.89
2022-12-25T12:33:18.654Z,13.90
2022-12-25T12:34:18.645Z,14.00
2022-12-25T12:35:18.625Z,13.90
2022-12-25T12:36:25.116Z,13.90
2022-12-25T12:37:24.607Z,13.92
2022-12-25T12:38:19.916Z,13.93
2022-12-25T12:39:18.572Z,13.92
2022-12-25T12:40:19.549Z,13.96
2022-12-25T12:41:18.537Z,13.99
2022-12-25T12:42:19.540Z,13.99
2022-12-25T12:43:18.534Z,14.03
2022-12-25T12:44:18.522Z,13.92
2022-12-25T12:45:18.502Z,13.93
2022-12-25T12:46:21.548Z,13.99
2022-12-25T12:47:19.457Z,13.96
2022-12-25T12:48:19.472Z,14.07
2022-12-25T12:49:19.448Z,13.96
2022-12-25T12:50:19.467Z,14.03
2022-12-25T12:51:18.428Z,13.99
2022-12-25T12:52:18.406Z,14.04
2022-12-25T12:53:18.411Z,14.00
2022-12-25T12:54:18.425Z,13.97
2022-12-25T12:55:19.389Z,13.86
2022-12-25T12:56:18.388Z,13.93
2022-12-25T12:57:18.389Z,14.00
2022-12-25T12:58:18.367Z,14.04
2022-12-25T12:59:18.322Z,13.93
2022-12-25T13:00:19.355Z,13.97
2022-12-25T13:01:18.432Z,13.92
2022-12-25T13:02:19.362Z,13.85
2022-12-25T13:03:19.355Z,13.92
2022-12-25T13:04:19.318Z,13.83
2022-12-25T13:05:18.272Z,13.81
2022-12-25T13:06:18.287Z,13.86
2022-12-25T13:07:18.253Z,13.86
2022-12-25T13:08:19.281Z,13.93
2022-12-25T13:09:18.243Z,13.93